sensor_id;sensor_type;location;lat;lon;timestamp;P1;durP1;ratioP1;P2;durP2;ratioP2
4634;SDS011;2330;48.158;11.816;2023-04-24T00:00:08;1.20;;;1.20;;
4634;SDS011;2330;48.158;11.816;2023-04-24T00:02:36;1.20;;;1.10;;
4634;SDS011;2330;48.158;11.816;2023-04-24T00:05:05;1.10;;;0.90;;
4634;SDS011;2330;48.158;11.816;2023-04-24T00:07:33;1.33;;;0.93;;
4634;SDS011;2330;48.158;11.816;2023-04-24T00:10:00;1.70;;;1.13;;
4634;SDS011;2330;48.158;11.816;2023-04-24T00:12:27;1.63;;;1.00;;
4634;SDS011;2330;48.158;11.816;2023-04-24T00:14:53;2.60;;;1.07;;
4634;SDS011;2330;48.158;11.816;2023-04-24T00:17:20;0.90;;;0.90;;
4634;SDS011;2330;48.158;11.816;2023-04-24T00:19:47;1.67;;;1.10;;
4634;SDS011;2330;48.158;11.816;2023-04-24T00:22:14;1.03;;;0.73;;
4634;SDS011;2330;48.158;11.816;2023-04-24T00:24:41;1.20;;;0.83;;
4634;SDS011;2330;48.158;11.816;2023-04-24T00:27:08;2.27;;;1.00;;
4634;SDS011;2330;48.158;11.816;2023-04-24T00:29:34;1.27;;;1.10;;
4634;SDS011;2330;48.158;11.816;2023-04-24T00:32:01;1.53;;;0.80;;
4634;SDS011;2330;48.158;11.816;2023-04-24T00:34:28;1.63;;;0.90;;
4634;SDS011;2330;48.158;11.816;2023-04-24T00:36:55;1.00;;;1.00;;
4634;SDS011;2330;48.158;11.816;2023-04-24T00:39:22;1.33;;;0.80;;
4634;SDS011;2330;48.158;11.816;2023-04-24T00:41:49;1.67;;;1.17;;
4634;SDS011;2330;48.158;11.816;2023-04-24T00:44:17;1.03;;;0.97;;
4634;SDS011;2330;48.158;11.816;2023-04-24T00:46:43;1.00;;;0.73;;
4634;SDS011;2330;48.158;11.816;2023-04-24T00:49:10;1.17;;;1.07;;
4634;SDS011;2330;48.158;11.816;2023-04-24T00:51:38;6.53;;;1.30;;
4634;SDS011;2330;48.158;11.816;2023-04-24T00:54:07;1.57;;;1.03;;
4634;SDS011;2330;48.158;11.816;2023-04-24T00:56:33;1.20;;;1.10;;
4634;SDS011;2330;48.158;11.816;2023-04-24T00:59:00;0.97;;;0.93;;
4634;SDS011;2330;48.158;11.816;2023-04-24T01:01:27;1.00;;;0.87;;
4634;SDS011;2330;48.158;11.816;2023-04-24T01:03:54;0.90;;;0.90;;
4634;SDS011;2330;48.158;11.816;2023-04-24T01:06:23;2.00;;;1.10;;
4634;SDS011;2330;48.158;11.816;2023-04-24T01:08:54;1.40;;;1.10;;
4634;SDS011;2330;48.158;11.816;2023-04-24T01:11:21;1.23;;;1.13;;
4634;SDS011;2330;48.158;11.816;2023-04-24T01:13:48;1.30;;;0.90;;
4634;SDS011;2330;48.158;11.816;2023-04-24T01:16:14;0.83;;;0.83;;
4634;SDS011;2330;48.158;11.816;2023-04-24T01:18:44;0.90;;;0.90;;
4634;SDS011;2330;48.158;11.816;2023-04-24T01:21:13;1.30;;;0.90;;
4634;SDS011;2330;48.158;11.816;2023-04-24T01:23:45;1.13;;;0.80;;
4634;SDS011;2330;48.158;11.816;2023-04-24T01:26:13;2.33;;;1.00;;
4634;SDS011;2330;48.158;11.816;2023-04-24T01:28:42;0.97;;;0.90;;
4634;SDS011;2330;48.158;11.816;2023-04-24T01:31:09;1.20;;;1.10;;
4634;SDS011;2330;48.158;11.816;2023-04-24T01:33:36;0.80;;;0.80;;
4634;SDS011;2330;48.158;11.816;2023-04-24T01:36:03;1.90;;;0.90;;
4634;SDS011;2330;48.158;11.816;2023-04-24T01:38:30;0.60;;;0.60;;
4634;SDS011;2330;48.158;11.816;2023-04-24T01:40:57;1.70;;;1.00;;
4634;SDS011;2330;48.158;11.816;2023-04-24T01:43:23;1.33;;;0.80;;
4634;SDS011;2330;48.158;11.816;2023-04-24T01:45:50;1.00;;;0.80;;
4634;SDS011;2330;48.158;11.816;2023-04-24T01:48:17;1.43;;;0.80;;
4634;SDS011;2330;48.158;11.816;2023-04-24T01:50:44;0.70;;;0.70;;
4634;SDS011;2330;48.158;11.816;2023-04-24T01:53:10;1.07;;;0.70;;
4634;SDS011;2330;48.158;11.816;2023-04-24T01:55:37;0.70;;;0.70;;
4634;SDS011;2330;48.158;11.816;2023-04-24T01:58:04;0.70;;;0.70;;
4634;SDS011;2330;48.158;11.816;2023-04-24T02:00:31;3.50;;;0.87;;
4634;SDS011;2330;48.158;11.816;2023-04-24T02:02:58;0.80;;;0.70;;
4634;SDS011;2330;48.158;11.816;2023-04-24T02:05:25;2.10;;;0.80;;
4634;SDS011;2330;48.158;11.816;2023-04-24T02:07:52;1.37;;;0.87;;
4634;SDS011;2330;48.158;11.816;2023-04-24T02:10:18;0.60;;;0.53;;
4634;SDS011;2330;48.158;11.816;2023-04-24T02:12:45;1.37;;;0.60;;
4634;SDS011;2330;48.158;11.816;2023-04-24T02:15:12;0.80;;;0.80;;
4634;SDS011;2330;48.158;11.816;2023-04-24T02:17:39;0.77;;;0.70;;
4634;SDS011;2330;48.158;11.816;2023-04-24T02:20:06;1.00;;;0.80;;
4634;SDS011;2330;48.158;11.816;2023-04-24T02:22:33;0.60;;;0.60;;
4634;SDS011;2330;48.158;11.816;2023-04-24T02:25:01;0.70;;;0.60;;
4634;SDS011;2330;48.158;11.816;2023-04-24T02:27:27;0.83;;;0.80;;
4634;SDS011;2330;48.158;11.816;2023-04-24T02:29:54;1.00;;;0.73;;
4634;SDS011;2330;48.158;11.816;2023-04-24T02:32:21;4.33;;;0.70;;
4634;SDS011;2330;48.158;11.816;2023-04-24T02:34:48;0.60;;;0.57;;
4634;SDS011;2330;48.158;11.816;2023-04-24T02:37:14;0.60;;;0.60;;
4634;SDS011;2330;48.158;11.816;2023-04-24T02:39:41;0.80;;;0.60;;
4634;SDS011;2330;48.158;11.816;2023-04-24T02:42:08;0.70;;;0.60;;
4634;SDS011;2330;48.158;11.816;2023-04-24T02:44:35;1.30;;;0.80;;
4634;SDS011;2330;48.158;11.816;2023-04-24T02:47:01;1.43;;;0.70;;
4634;SDS011;2330;48.158;11.816;2023-04-24T02:49:28;1.57;;;0.73;;
4634;SDS011;2330;48.158;11.816;2023-04-24T02:51:55;0.63;;;0.50;;
4634;SDS011;2330;48.158;11.816;2023-04-24T02:54:22;1.10;;;0.70;;
4634;SDS011;2330;48.158;11.816;2023-04-24T02:56:48;0.60;;;0.60;;
4634;SDS011;2330;48.158;11.816;2023-04-24T02:59:15;1.07;;;0.63;;
4634;SDS011;2330;48.158;11.816;2023-04-24T03:01:42;1.70;;;0.70;;
4634;SDS011;2330;48.158;11.816;2023-04-24T03:04:09;0.87;;;0.70;;
4634;SDS011;2330;48.158;11.816;2023-04-24T03:06:36;0.60;;;0.60;;
4634;SDS011;2330;48.158;11.816;2023-04-24T03:09:03;0.80;;;0.60;;
4634;SDS011;2330;48.158;11.816;2023-04-24T03:11:30;3.17;;;0.60;;
4634;SDS011;2330;48.158;11.816;2023-04-24T03:13:57;2.87;;;0.70;;
4634;SDS011;2330;48.158;11.816;2023-04-24T03:16:24;1.30;;;0.80;;
4634;SDS011;2330;48.158;11.816;2023-04-24T03:18:51;0.53;;;0.47;;
4634;SDS011;2330;48.158;11.816;2023-04-24T03:21:18;0.60;;;0.50;;
4634;SDS011;2330;48.158;11.816;2023-04-24T03:23:44;1.43;;;0.60;;
4634;SDS011;2330;48.158;11.816;2023-04-24T03:26:11;0.97;;;0.67;;
4634;SDS011;2330;48.158;11.816;2023-04-24T03:28:38;2.03;;;0.50;;
4634;SDS011;2330;48.158;11.816;2023-04-24T03:31:04;1.00;;;0.60;;
4634;SDS011;2330;48.158;11.816;2023-04-24T03:33:31;1.00;;;0.60;;
4634;SDS011;2330;48.158;11.816;2023-04-24T03:35:58;1.10;;;0.80;;
4634;SDS011;2330;48.158;11.816;2023-04-24T03:38:25;1.27;;;0.90;;
4634;SDS011;2330;48.158;11.816;2023-04-24T03:40:51;0.80;;;0.70;;
4634;SDS011;2330;48.158;11.816;2023-04-24T03:43:18;0.90;;;0.67;;
4634;SDS011;2330;48.158;11.816;2023-04-24T03:45:45;0.60;;;0.60;;
4634;SDS011;2330;48.158;11.816;2023-04-24T03:48:12;0.90;;;0.70;;
4634;SDS011;2330;48.158;11.816;2023-04-24T03:50:38;0.70;;;0.70;;
4634;SDS011;2330;48.158;11.816;2023-04-24T03:53:05;2.83;;;0.73;;
4634;SDS011;2330;48.158;11.816;2023-04-24T03:55:32;1.43;;;0.73;;
4634;SDS011;2330;48.158;11.816;2023-04-24T03:57:58;0.93;;;0.70;;
4634;SDS011;2330;48.158;11.816;2023-04-24T04:00:25;1.27;;;0.70;;
4634;SDS011;2330;48.158;11.816;2023-04-24T04:02:52;2.40;;;0.80;;
4634;SDS011;2330;48.158;11.816;2023-04-24T04:05:19;1.03;;;0.77;;
4634;SDS011;2330;48.158;11.816;2023-04-24T04:07:46;2.77;;;0.67;;
4634;SDS011;2330;48.158;11.816;2023-04-24T04:10:13;1.30;;;1.17;;
4634;SDS011;2330;48.158;11.816;2023-04-24T04:12:40;1.63;;;0.97;;
4634;SDS011;2330;48.158;11.816;2023-04-24T04:15:07;2.90;;;0.90;;
4634;SDS011;2330;48.158;11.816;2023-04-24T04:17:33;0.77;;;0.77;;
4634;SDS011;2330;48.158;11.816;2023-04-24T04:20:00;1.00;;;0.73;;
4634;SDS011;2330;48.158;11.816;2023-04-24T04:22:27;3.17;;;0.97;;
4634;SDS011;2330;48.158;11.816;2023-04-24T04:24:54;1.33;;;0.60;;
4634;SDS011;2330;48.158;11.816;2023-04-24T04:27:20;1.53;;;0.90;;
4634;SDS011;2330;48.158;11.816;2023-04-24T04:29:47;3.30;;;1.10;;
4634;SDS011;2330;48.158;11.816;2023-04-24T04:32:14;1.93;;;1.10;;
4634;SDS011;2330;48.158;11.816;2023-04-24T04:34:42;1.00;;;0.60;;
4634;SDS011;2330;48.158;11.816;2023-04-24T04:37:11;1.27;;;0.70;;
4634;SDS011;2330;48.158;11.816;2023-04-24T04:39:38;1.47;;;1.00;;
4634;SDS011;2330;48.158;11.816;2023-04-24T04:42:06;1.47;;;0.70;;
4634;SDS011;2330;48.158;11.816;2023-04-24T04:44:32;0.80;;;0.67;;
4634;SDS011;2330;48.158;11.816;2023-04-24T04:47:02;0.93;;;0.93;;
4634;SDS011;2330;48.158;11.816;2023-04-24T04:49:32;2.80;;;0.80;;
4634;SDS011;2330;48.158;11.816;2023-04-24T04:51:58;1.70;;;0.90;;
4634;SDS011;2330;48.158;11.816;2023-04-24T04:54:25;2.40;;;0.80;;
4634;SDS011;2330;48.158;11.816;2023-04-24T04:56:52;1.63;;;1.03;;
4634;SDS011;2330;48.158;11.816;2023-04-24T04:59:19;1.00;;;0.63;;
4634;SDS011;2330;48.158;11.816;2023-04-24T05:01:46;1.10;;;0.80;;
4634;SDS011;2330;48.158;11.816;2023-04-24T05:04:13;0.70;;;0.60;;
4634;SDS011;2330;48.158;11.816;2023-04-24T05:06:39;1.37;;;0.90;;
4634;SDS011;2330;48.158;11.816;2023-04-24T05:09:06;1.77;;;1.17;;
4634;SDS011;2330;48.158;11.816;2023-04-24T05:11:33;1.50;;;0.87;;
4634;SDS011;2330;48.158;11.816;2023-04-24T05:14:00;2.00;;;0.80;;
4634;SDS011;2330;48.158;11.816;2023-04-24T05:16:27;3.30;;;1.10;;
4634;SDS011;2330;48.158;11.816;2023-04-24T05:18:53;1.10;;;0.70;;
4634;SDS011;2330;48.158;11.816;2023-04-24T05:21:20;1.60;;;0.90;;
4634;SDS011;2330;48.158;11.816;2023-04-24T05:23:47;1.47;;;0.90;;
4634;SDS011;2330;48.158;11.816;2023-04-24T05:26:14;0.70;;;0.70;;
4634;SDS011;2330;48.158;11.816;2023-04-24T05:28:41;1.57;;;0.87;;
4634;SDS011;2330;48.158;11.816;2023-04-24T05:31:08;1.00;;;0.90;;
4634;SDS011;2330;48.158;11.816;2023-04-24T05:33:35;2.27;;;0.83;;
4634;SDS011;2330;48.158;11.816;2023-04-24T05:36:01;1.00;;;0.90;;
4634;SDS011;2330;48.158;11.816;2023-04-24T05:38:28;0.80;;;0.73;;
4634;SDS011;2330;48.158;11.816;2023-04-24T05:40:55;0.70;;;0.70;;
4634;SDS011;2330;48.158;11.816;2023-04-24T05:43:21;1.00;;;0.70;;
4634;SDS011;2330;48.158;11.816;2023-04-24T05:45:48;1.77;;;0.77;;
4634;SDS011;2330;48.158;11.816;2023-04-24T05:48:15;2.10;;;0.60;;
4634;SDS011;2330;48.158;11.816;2023-04-24T05:50:41;0.80;;;0.80;;
4634;SDS011;2330;48.158;11.816;2023-04-24T05:53:08;0.90;;;0.70;;
4634;SDS011;2330;48.158;11.816;2023-04-24T05:55:36;4.00;;;0.63;;
4634;SDS011;2330;48.158;11.816;2023-04-24T05:58:03;3.60;;;0.90;;
4634;SDS011;2330;48.158;11.816;2023-04-24T06:00:30;2.87;;;0.87;;
4634;SDS011;2330;48.158;11.816;2023-04-24T06:02:57;1.83;;;0.80;;
4634;SDS011;2330;48.158;11.816;2023-04-24T06:05:24;4.63;;;1.00;;
4634;SDS011;2330;48.158;11.816;2023-04-24T06:07:51;1.00;;;0.70;;
4634;SDS011;2330;48.158;11.816;2023-04-24T06:10:18;0.90;;;0.80;;
4634;SDS011;2330;48.158;11.816;2023-04-24T06:12:44;1.57;;;0.60;;
4634;SDS011;2330;48.158;11.816;2023-04-24T06:15:11;0.70;;;0.70;;
4634;SDS011;2330;48.158;11.816;2023-04-24T06:17:39;1.20;;;0.80;;
4634;SDS011;2330;48.158;11.816;2023-04-24T06:20:06;0.60;;;0.60;;
4634;SDS011;2330;48.158;11.816;2023-04-24T06:22:34;0.70;;;0.50;;
4634;SDS011;2330;48.158;11.816;2023-04-24T06:25:01;1.77;;;0.70;;
4634;SDS011;2330;48.158;11.816;2023-04-24T06:27:28;0.80;;;0.57;;
4634;SDS011;2330;48.158;11.816;2023-04-24T06:29:55;1.00;;;0.57;;
4634;SDS011;2330;48.158;11.816;2023-04-24T06:32:22;1.20;;;0.60;;
4634;SDS011;2330;48.158;11.816;2023-04-24T06:34:51;0.70;;;0.60;;
4634;SDS011;2330;48.158;11.816;2023-04-24T06:37:19;0.70;;;0.60;;
4634;SDS011;2330;48.158;11.816;2023-04-24T06:39:46;3.00;;;0.60;;
4634;SDS011;2330;48.158;11.816;2023-04-24T06:42:13;1.17;;;0.50;;
4634;SDS011;2330;48.158;11.816;2023-04-24T06:44:40;0.60;;;0.60;;
4634;SDS011;2330;48.158;11.816;2023-04-24T06:47:07;1.27;;;0.50;;
4634;SDS011;2330;48.158;11.816;2023-04-24T06:49:35;2.13;;;0.60;;
4634;SDS011;2330;48.158;11.816;2023-04-24T06:52:03;0.57;;;0.50;;
4634;SDS011;2330;48.158;11.816;2023-04-24T06:54:30;0.90;;;0.57;;
4634;SDS011;2330;48.158;11.816;2023-04-24T06:56:57;0.70;;;0.50;;
4634;SDS011;2330;48.158;11.816;2023-04-24T06:59:24;0.50;;;0.43;;
4634;SDS011;2330;48.158;11.816;2023-04-24T07:01:51;0.67;;;0.67;;
4634;SDS011;2330;48.158;11.816;2023-04-24T07:04:20;0.90;;;0.60;;
4634;SDS011;2330;48.158;11.816;2023-04-24T07:06:48;3.23;;;0.60;;
4634;SDS011;2330;48.158;11.816;2023-04-24T07:09:18;1.00;;;0.50;;
4634;SDS011;2330;48.158;11.816;2023-04-24T07:11:46;0.70;;;0.60;;
4634;SDS011;2330;48.158;11.816;2023-04-24T07:14:13;0.60;;;0.50;;
4634;SDS011;2330;48.158;11.816;2023-04-24T07:16:40;1.00;;;0.90;;
4634;SDS011;2330;48.158;11.816;2023-04-24T07:19:06;0.50;;;0.50;;
4634;SDS011;2330;48.158;11.816;2023-04-24T07:21:33;0.80;;;0.80;;
4634;SDS011;2330;48.158;11.816;2023-04-24T07:24:00;0.70;;;0.63;;
4634;SDS011;2330;48.158;11.816;2023-04-24T07:26:28;0.60;;;0.50;;
4634;SDS011;2330;48.158;11.816;2023-04-24T07:28:55;1.43;;;0.60;;
4634;SDS011;2330;48.158;11.816;2023-04-24T07:31:22;0.57;;;0.50;;
4634;SDS011;2330;48.158;11.816;2023-04-24T07:33:49;0.80;;;0.60;;
4634;SDS011;2330;48.158;11.816;2023-04-24T07:36:16;0.60;;;0.50;;
4634;SDS011;2330;48.158;11.816;2023-04-24T07:38:45;0.70;;;0.50;;
4634;SDS011;2330;48.158;11.816;2023-04-24T07:41:12;2.40;;;0.80;;
4634;SDS011;2330;48.158;11.816;2023-04-24T07:43:40;0.60;;;0.50;;
4634;SDS011;2330;48.158;11.816;2023-04-24T07:46:07;2.50;;;0.63;;
4634;SDS011;2330;48.158;11.816;2023-04-24T07:48:34;2.30;;;0.70;;
4634;SDS011;2330;48.158;11.816;2023-04-24T07:51:01;0.70;;;0.60;;
4634;SDS011;2330;48.158;11.816;2023-04-24T07:53:28;0.87;;;0.50;;
4634;SDS011;2330;48.158;11.816;2023-04-24T07:55:55;0.77;;;0.53;;
4634;SDS011;2330;48.158;11.816;2023-04-24T07:58:22;0.80;;;0.50;;
4634;SDS011;2330;48.158;11.816;2023-04-24T08:00:49;1.07;;;0.73;;
4634;SDS011;2330;48.158;11.816;2023-04-24T08:03:15;0.90;;;0.50;;
4634;SDS011;2330;48.158;11.816;2023-04-24T08:05:45;1.27;;;0.60;;
4634;SDS011;2330;48.158;11.816;2023-04-24T08:08:13;0.50;;;0.50;;
4634;SDS011;2330;48.158;11.816;2023-04-24T08:10:39;1.20;;;0.60;;
4634;SDS011;2330;48.158;11.816;2023-04-24T08:13:06;1.10;;;0.60;;
4634;SDS011;2330;48.158;11.816;2023-04-24T08:15:33;1.10;;;0.60;;
4634;SDS011;2330;48.158;11.816;2023-04-24T08:18:00;1.27;;;0.80;;
4634;SDS011;2330;48.158;11.816;2023-04-24T08:20:27;1.13;;;0.60;;
4634;SDS011;2330;48.158;11.816;2023-04-24T08:22:54;0.63;;;0.60;;
4634;SDS011;2330;48.158;11.816;2023-04-24T08:25:21;2.03;;;0.80;;
4634;SDS011;2330;48.158;11.816;2023-04-24T08:27:49;3.90;;;0.67;;
4634;SDS011;2330;48.158;11.816;2023-04-24T08:30:16;0.63;;;0.60;;
4634;SDS011;2330;48.158;11.816;2023-04-24T08:32:43;0.80;;;0.60;;
4634;SDS011;2330;48.158;11.816;2023-04-24T08:35:10;1.80;;;0.63;;
4634;SDS011;2330;48.158;11.816;2023-04-24T08:37:37;0.73;;;0.63;;
4634;SDS011;2330;48.158;11.816;2023-04-24T08:40:05;0.90;;;0.60;;
4634;SDS011;2330;48.158;11.816;2023-04-24T08:42:37;1.37;;;0.70;;
4634;SDS011;2330;48.158;11.816;2023-04-24T08:45:06;0.80;;;0.70;;
4634;SDS011;2330;48.158;11.816;2023-04-24T08:47:33;0.70;;;0.60;;
4634;SDS011;2330;48.158;11.816;2023-04-24T08:50:02;1.47;;;1.07;;
4634;SDS011;2330;48.158;11.816;2023-04-24T08:52:34;1.47;;;0.70;;
4634;SDS011;2330;48.158;11.816;2023-04-24T08:55:01;0.77;;;0.63;;
4634;SDS011;2330;48.158;11.816;2023-04-24T08:57:28;0.60;;;0.60;;
4634;SDS011;2330;48.158;11.816;2023-04-24T08:59:57;0.83;;;0.60;;
4634;SDS011;2330;48.158;11.816;2023-04-24T09:02:24;1.47;;;0.70;;
4634;SDS011;2330;48.158;11.816;2023-04-24T09:04:53;0.70;;;0.70;;
4634;SDS011;2330;48.158;11.816;2023-04-24T09:07:22;5.50;;;0.80;;
4634;SDS011;2330;48.158;11.816;2023-04-24T09:09:51;0.60;;;0.60;;
4634;SDS011;2330;48.158;11.816;2023-04-24T09:12:18;1.00;;;0.80;;
4634;SDS011;2330;48.158;11.816;2023-04-24T09:14:45;3.80;;;0.80;;
4634;SDS011;2330;48.158;11.816;2023-04-24T09:17:12;0.73;;;0.70;;
4634;SDS011;2330;48.158;11.816;2023-04-24T09:19:39;0.80;;;0.80;;
4634;SDS011;2330;48.158;11.816;2023-04-24T09:22:07;2.53;;;1.07;;
4634;SDS011;2330;48.158;11.816;2023-04-24T09:24:35;1.07;;;0.80;;
4634;SDS011;2330;48.158;11.816;2023-04-24T09:27:02;0.80;;;0.80;;
4634;SDS011;2330;48.158;11.816;2023-04-24T09:29:30;2.50;;;0.90;;
4634;SDS011;2330;48.158;11.816;2023-04-24T09:31:59;3.00;;;1.37;;
4634;SDS011;2330;48.158;11.816;2023-04-24T09:34:43;1.37;;;0.93;;
4634;SDS011;2330;48.158;11.816;2023-04-24T09:37:29;1.00;;;1.00;;
4634;SDS011;2330;48.158;11.816;2023-04-24T09:40:12;2.67;;;1.77;;
4634;SDS011;2330;48.158;11.816;2023-04-24T09:42:44;1.40;;;1.30;;
4634;SDS011;2330;48.158;11.816;2023-04-24T09:45:22;1.40;;;1.27;;
4634;SDS011;2330;48.158;11.816;2023-04-24T09:47:53;1.63;;;1.30;;
4634;SDS011;2330;48.158;11.816;2023-04-24T09:50:21;1.73;;;1.60;;
4634;SDS011;2330;48.158;11.816;2023-04-24T09:52:59;2.10;;;1.60;;
4634;SDS011;2330;48.158;11.816;2023-04-24T09:55:28;3.27;;;2.97;;
4634;SDS011;2330;48.158;11.816;2023-04-24T09:57:59;1.20;;;1.10;;
4634;SDS011;2330;48.158;11.816;2023-04-24T10:00:28;1.40;;;1.30;;
4634;SDS011;2330;48.158;11.816;2023-04-24T10:05:30;1.13;;;1.00;;
4634;SDS011;2330;48.158;11.816;2023-04-24T10:10:30;1.27;;;1.17;;
4634;SDS011;2330;48.158;11.816;2023-04-24T10:12:58;1.40;;;1.30;;
4634;SDS011;2330;48.158;11.816;2023-04-24T10:15:26;1.00;;;0.90;;
4634;SDS011;2330;48.158;11.816;2023-04-24T10:17:53;1.10;;;1.07;;
4634;SDS011;2330;48.158;11.816;2023-04-24T10:20:21;1.13;;;1.03;;
4634;SDS011;2330;48.158;11.816;2023-04-24T10:22:50;1.40;;;1.30;;
4634;SDS011;2330;48.158;11.816;2023-04-24T10:25:18;2.60;;;1.47;;
4634;SDS011;2330;48.158;11.816;2023-04-24T10:27:47;1.40;;;1.30;;
4634;SDS011;2330;48.158;11.816;2023-04-24T10:30:15;1.37;;;1.00;;
4634;SDS011;2330;48.158;11.816;2023-04-24T10:32:42;3.63;;;1.70;;
4634;SDS011;2330;48.158;11.816;2023-04-24T10:35:10;3.77;;;1.47;;
4634;SDS011;2330;48.158;11.816;2023-04-24T10:37:43;1.17;;;1.07;;
4634;SDS011;2330;48.158;11.816;2023-04-24T10:40:26;4.37;;;1.50;;
4634;SDS011;2330;48.158;11.816;2023-04-24T10:42:56;2.10;;;1.10;;
4634;SDS011;2330;48.158;11.816;2023-04-24T10:45:25;1.53;;;1.03;;
4634;SDS011;2330;48.158;11.816;2023-04-24T10:51:04;1.73;;;0.97;;
4634;SDS011;2330;48.158;11.816;2023-04-24T10:53:24;4.30;;;1.67;;
4634;SDS011;2330;48.158;11.816;2023-04-24T10:55:58;1.27;;;0.87;;
4634;SDS011;2330;48.158;11.816;2023-04-24T11:01:29;1.23;;;1.10;;
4634;SDS011;2330;48.158;11.816;2023-04-24T11:03:59;2.13;;;1.30;;
4634;SDS011;2330;48.158;11.816;2023-04-24T11:06:28;1.17;;;1.07;;
4634;SDS011;2330;48.158;11.816;2023-04-24T11:09:05;2.10;;;1.10;;
4634;SDS011;2330;48.158;11.816;2023-04-24T11:11:34;1.33;;;1.23;;
4634;SDS011;2330;48.158;11.816;2023-04-24T11:14:04;2.73;;;1.10;;
4634;SDS011;2330;48.158;11.816;2023-04-24T11:16:42;2.70;;;0.80;;
4634;SDS011;2330;48.158;11.816;2023-04-24T11:19:23;1.00;;;0.90;;
4634;SDS011;2330;48.158;11.816;2023-04-24T11:21:57;1.80;;;0.90;;
4634;SDS011;2330;48.158;11.816;2023-04-24T11:24:37;1.30;;;1.13;;
4634;SDS011;2330;48.158;11.816;2023-04-24T11:27:12;1.60;;;1.37;;
4634;SDS011;2330;48.158;11.816;2023-04-24T11:32:18;1.13;;;0.90;;
4634;SDS011;2330;48.158;11.816;2023-04-24T11:34:54;1.97;;;1.23;;
4634;SDS011;2330;48.158;11.816;2023-04-24T11:37:24;1.43;;;1.30;;
4634;SDS011;2330;48.158;11.816;2023-04-24T11:39:56;1.23;;;0.90;;
4634;SDS011;2330;48.158;11.816;2023-04-24T11:42:25;1.10;;;1.00;;
4634;SDS011;2330;48.158;11.816;2023-04-24T11:44:52;3.90;;;0.97;;
4634;SDS011;2330;48.158;11.816;2023-04-24T11:47:19;1.10;;;1.00;;
4634;SDS011;2330;48.158;11.816;2023-04-24T11:49:49;1.37;;;1.20;;
4634;SDS011;2330;48.158;11.816;2023-04-24T11:52:16;1.97;;;1.60;;
4634;SDS011;2330;48.158;11.816;2023-04-24T11:54:47;1.53;;;1.27;;
4634;SDS011;2330;48.158;11.816;2023-04-24T11:57:18;1.57;;;1.47;;
4634;SDS011;2330;48.158;11.816;2023-04-24T11:59:48;1.60;;;1.50;;
4634;SDS011;2330;48.158;11.816;2023-04-24T12:02:22;1.30;;;1.20;;
4634;SDS011;2330;48.158;11.816;2023-04-24T12:04:53;1.23;;;1.10;;
4634;SDS011;2330;48.158;11.816;2023-04-24T12:07:22;2.20;;;1.20;;
4634;SDS011;2330;48.158;11.816;2023-04-24T12:09:57;2.00;;;1.40;;
4634;SDS011;2330;48.158;11.816;2023-04-24T12:12:28;1.20;;;0.90;;
4634;SDS011;2330;48.158;11.816;2023-04-24T12:14:56;1.43;;;1.10;;
4634;SDS011;2330;48.158;11.816;2023-04-24T12:17:25;2.23;;;2.07;;
4634;SDS011;2330;48.158;11.816;2023-04-24T12:20:04;1.20;;;1.10;;
4634;SDS011;2330;48.158;11.816;2023-04-24T12:22:42;1.30;;;1.20;;
4634;SDS011;2330;48.158;11.816;2023-04-24T12:25:21;2.13;;;0.90;;
4634;SDS011;2330;48.158;11.816;2023-04-24T12:27:54;1.10;;;1.00;;
4634;SDS011;2330;48.158;11.816;2023-04-24T12:30:48;1.27;;;1.00;;
4634;SDS011;2330;48.158;11.816;2023-04-24T12:33:21;1.30;;;1.20;;
4634;SDS011;2330;48.158;11.816;2023-04-24T12:35:51;0.90;;;0.83;;
4634;SDS011;2330;48.158;11.816;2023-04-24T12:38:22;1.03;;;0.93;;
4634;SDS011;2330;48.158;11.816;2023-04-24T12:41:01;1.93;;;1.60;;
4634;SDS011;2330;48.158;11.816;2023-04-24T12:43:30;4.63;;;1.10;;
4634;SDS011;2330;48.158;11.816;2023-04-24T12:45:57;2.67;;;0.90;;
4634;SDS011;2330;48.158;11.816;2023-04-24T12:48:25;1.10;;;1.00;;
4634;SDS011;2330;48.158;11.816;2023-04-24T12:50:53;3.37;;;1.43;;
4634;SDS011;2330;48.158;11.816;2023-04-24T12:53:20;1.00;;;0.83;;
4634;SDS011;2330;48.158;11.816;2023-04-24T12:55:46;1.10;;;1.00;;
4634;SDS011;2330;48.158;11.816;2023-04-24T12:58:19;4.33;;;1.30;;
4634;SDS011;2330;48.158;11.816;2023-04-24T13:00:46;2.93;;;1.00;;
4634;SDS011;2330;48.158;11.816;2023-04-24T13:03:14;1.20;;;1.00;;
4634;SDS011;2330;48.158;11.816;2023-04-24T13:05:42;0.80;;;0.80;;
4634;SDS011;2330;48.158;11.816;2023-04-24T13:08:09;1.90;;;1.07;;
4634;SDS011;2330;48.158;11.816;2023-04-24T13:10:36;1.37;;;1.27;;
4634;SDS011;2330;48.158;11.816;2023-04-24T13:13:03;1.20;;;1.10;;
4634;SDS011;2330;48.158;11.816;2023-04-24T13:15:29;3.37;;;1.37;;
4634;SDS011;2330;48.158;11.816;2023-04-24T13:17:56;1.63;;;1.10;;
4634;SDS011;2330;48.158;11.816;2023-04-24T13:20:23;1.43;;;1.33;;
4634;SDS011;2330;48.158;11.816;2023-04-24T13:22:50;2.47;;;1.13;;
4634;SDS011;2330;48.158;11.816;2023-04-24T13:25:16;1.93;;;1.10;;
4634;SDS011;2330;48.158;11.816;2023-04-24T13:27:44;1.60;;;1.50;;
4634;SDS011;2330;48.158;11.816;2023-04-24T13:30:10;4.20;;;1.20;;
4634;SDS011;2330;48.158;11.816;2023-04-24T13:32:37;1.53;;;0.93;;
4634;SDS011;2330;48.158;11.816;2023-04-24T13:35:04;2.20;;;1.27;;
4634;SDS011;2330;48.158;11.816;2023-04-24T13:37:31;1.73;;;1.60;;
4634;SDS011;2330;48.158;11.816;2023-04-24T13:39:58;3.63;;;1.87;;
4634;SDS011;2330;48.158;11.816;2023-04-24T13:42:25;3.60;;;1.93;;
4634;SDS011;2330;48.158;11.816;2023-04-24T13:44:51;3.40;;;3.10;;
4634;SDS011;2330;48.158;11.816;2023-04-24T13:47:18;1.80;;;1.60;;
4634;SDS011;2330;48.158;11.816;2023-04-24T13:49:45;1.97;;;1.73;;
4634;SDS011;2330;48.158;11.816;2023-04-24T13:52:12;3.17;;;1.50;;
4634;SDS011;2330;48.158;11.816;2023-04-24T13:54:38;3.43;;;2.23;;
4634;SDS011;2330;48.158;11.816;2023-04-24T13:57:05;2.30;;;1.60;;
4634;SDS011;2330;48.158;11.816;2023-04-24T13:59:32;1.43;;;1.20;;
4634;SDS011;2330;48.158;11.816;2023-04-24T14:01:58;1.50;;;1.40;;
4634;SDS011;2330;48.158;11.816;2023-04-24T14:04:25;1.83;;;1.40;;
4634;SDS011;2330;48.158;11.816;2023-04-24T14:06:52;5.37;;;1.50;;
4634;SDS011;2330;48.158;11.816;2023-04-24T14:09:19;1.43;;;1.33;;
4634;SDS011;2330;48.158;11.816;2023-04-24T14:11:46;2.80;;;1.30;;
4634;SDS011;2330;48.158;11.816;2023-04-24T14:14:12;1.97;;;1.30;;
4634;SDS011;2330;48.158;11.816;2023-04-24T14:16:39;2.50;;;1.20;;
4634;SDS011;2330;48.158;11.816;2023-04-24T14:19:06;2.30;;;1.87;;
4634;SDS011;2330;48.158;11.816;2023-04-24T14:21:33;1.87;;;1.43;;
4634;SDS011;2330;48.158;11.816;2023-04-24T14:23:59;1.67;;;1.30;;
4634;SDS011;2330;48.158;11.816;2023-04-24T14:26:26;1.47;;;1.37;;
4634;SDS011;2330;48.158;11.816;2023-04-24T14:28:53;11.43;;;1.53;;
4634;SDS011;2330;48.158;11.816;2023-04-24T14:31:36;1.40;;;1.20;;
4634;SDS011;2330;48.158;11.816;2023-04-24T14:34:03;1.63;;;1.20;;
4634;SDS011;2330;48.158;11.816;2023-04-24T14:36:29;1.63;;;1.33;;
4634;SDS011;2330;48.158;11.816;2023-04-24T14:38:57;1.33;;;1.23;;
4634;SDS011;2330;48.158;11.816;2023-04-24T14:41:24;1.90;;;1.30;;
4634;SDS011;2330;48.158;11.816;2023-04-24T14:43:51;3.13;;;1.40;;
4634;SDS011;2330;48.158;11.816;2023-04-24T14:46:17;3.10;;;1.50;;
4634;SDS011;2330;48.158;11.816;2023-04-24T14:48:44;1.30;;;1.20;;
4634;SDS011;2330;48.158;11.816;2023-04-24T14:51:11;1.70;;;1.60;;
4634;SDS011;2330;48.158;11.816;2023-04-24T14:53:38;2.20;;;1.03;;
4634;SDS011;2330;48.158;11.816;2023-04-24T14:56:05;3.17;;;1.20;;
4634;SDS011;2330;48.158;11.816;2023-04-24T14:58:32;1.90;;;1.53;;
4634;SDS011;2330;48.158;11.816;2023-04-24T15:00:59;4.87;;;1.40;;
4634;SDS011;2330;48.158;11.816;2023-04-24T15:03:25;1.57;;;1.40;;
4634;SDS011;2330;48.158;11.816;2023-04-24T15:05:53;1.40;;;1.30;;
4634;SDS011;2330;48.158;11.816;2023-04-24T15:08:20;2.30;;;1.27;;
4634;SDS011;2330;48.158;11.816;2023-04-24T15:10:46;1.83;;;1.27;;
4634;SDS011;2330;48.158;11.816;2023-04-24T15:13:13;3.30;;;1.37;;
4634;SDS011;2330;48.158;11.816;2023-04-24T15:15:40;2.60;;;1.63;;
4634;SDS011;2330;48.158;11.816;2023-04-24T15:18:07;1.90;;;1.33;;